Time;durP1;ratioP1;P1;durP2;ratioP2;P2;SDS_P1;SDS_P2;PMS_P1;PMS_P2;Temp;Humidity;BMP_temperature;BMP_pressure;BME280_temperature;BME280_humidity;BME280_pressure;Samples;Min_cycle;Max_cycle;Signal;HPM_P1;HPM_P2
2024/03/07 00:00:14;;;;;;;;;;;4.30;1.00;;;;;;5035349;28;20280;-77
2024/03/07 00:05:58;;;;;;;;;;;4.20;1.00;;;;;;5015663;28;19963;-75
2024/03/07 00:11:26;;;;;;;;;;;4.10;1.00;;;;;;5043030;28;19921;-76
2024/03/07 00:17:02;;;;;;;;;;;4.10;1.00;;;;;;5055639;28;20001;-75
2024/03/07 00:19:29;;;;;;;;;;;4.10;1.00;;;;;;5035927;28;19969;-75
2024/03/07 00:21:58;;;;;;;;;;;4.10;1.00;;;;;;5048596;28;20003;-75
2024/03/07 00:24:29;;;;;;;;;;;4.10;1.00;;;;;;5033101;28;20356;-74
2024/03/07 00:27:22;;;;;;;;;;;4.10;1.00;;;;;;5028578;28;19959;-75
2024/03/07 00:29:53;;;;;;;;;;;4.10;1.00;;;;;;5048415;28;19923;-75
2024/03/07 00:32:23;;;;;;;;;;;4.10;1.00;;;;;;5048182;28;19917;-75
2024/03/07 00:34:59;;;;;;;;;;;4.20;1.00;;;;;;5048665;28;19909;-75
2024/03/07 00:37:53;;;;;;;;;;;4.20;1.00;;;;;;5034915;28;19916;-75
2024/03/07 00:40:29;;;;;;;;;;;4.20;1.00;;;;;;5035075;28;19913;-75
2024/03/07 00:42:55;;;;;;;;;;;4.20;1.00;;;;;;5045921;28;20352;-75
2024/03/07 00:45:20;;;;;;;;;;;4.20;1.00;;;;;;5047208;28;19920;-75
2024/03/07 00:51:23;;;;;;;;;;;4.30;1.00;;;;;;5039861;28;19924;-76
2024/03/07 00:56:51;;;;;;;;;;;4.40;1.00;;;;;;5034223;28;19921;-76
2024/03/07 01:05:59;;;;;;;;;;;4.30;1.00;;;;;;5014604;28;19916;-76
2024/03/07 01:08:59;;;;;;;;;;;4.30;1.00;;;;;;5044956;28;19923;-77
2024/03/07 01:11:29;;;;;;;;;;;4.30;1.00;;;;;;5034712;28;20379;-77
2024/03/07 01:16:58;;;;;;;;;;;4.20;1.00;;;;;;5042201;28;20269;-75
2024/03/07 01:19:46;;;;;;;;;;;4.20;1.00;;;;;;5032099;28;19910;-75
2024/03/07 01:22:17;;;;;;;;;;;4.20;1.00;;;;;;5048450;28;19909;-75
2024/03/07 01:24:43;;;;;;;;;;;4.10;1.00;;;;;;5034636;28;19920;-75
2024/03/07 01:27:09;;;;;;;;;;;4.10;1.00;;;;;;5039189;28;20265;-75
2024/03/07 01:29:34;;;;;;;;;;;4.00;1.00;;;;;;5038402;28;19910;-75
2024/03/07 01:32:00;;;;;;;;;;;4.00;1.00;;;;;;5034018;28;19921;-75
2024/03/07 01:34:29;;;;;;;;;;;3.90;1.00;;;;;;5026434;28;19913;-75
2024/03/07 01:37:05;;;;;;;;;;;3.90;1.00;;;;;;5049358;28;19917;-75
2024/03/07 01:39:30;;;;;;;;;;;3.90;1.00;;;;;;5034143;28;20044;-75
2024/03/07 01:42:24;;;;;;;;;;;3.90;1.00;;;;;;5034231;28;20030;-75
2024/03/07 01:44:51;;;;;;;;;;;3.90;1.00;;;;;;5020131;28;19914;-75
2024/03/07 01:47:17;;;;;;;;;;;3.90;1.00;;;;;;5036295;28;19920;-75
2024/03/07 01:49:43;;;;;;;;;;;3.90;1.00;;;;;;5043613;28;19912;-75
2024/03/07 01:52:17;;;;;;;;;;;3.80;1.00;;;;;;5039848;28;19909;-75
2024/03/07 01:55:17;;;;;;;;;;;3.80;1.00;;;;;;5033913;28;19909;-75
2024/03/07 01:57:59;;;;;;;;;;;3.80;1.00;;;;;;5022454;28;19910;-75
2024/03/07 02:00:43;;;;;;;;;;;3.80;1.00;;;;;;5031864;28;19937;-75
2024/03/07 02:03:17;;;;;;;;;;;3.70;1.00;;;;;;5034399;28;19917;-74
2024/03/07 02:05:47;;;;;;;;;;;3.70;1.00;;;;;;5028905;28;19912;-75
2024/03/07 02:08:14;;;;;;;;;;;3.70;1.00;;;;;;5034102;28;19913;-75
2024/03/07 02:10:41;;;;;;;;;;;3.60;1.00;;;;;;5033667;28;19964;-75
2024/03/07 02:13:23;;;;;;;;;;;3.60;1.00;;;;;;5047128;28;19944;-75
2024/03/07 02:15:59;;;;;;;;;;;3.50;1.00;;;;;;5032787;28;19913;-75
2024/03/07 02:21:27;;;;;;;;;;;3.40;1.00;;;;;;5040114;28;19920;-76
2024/03/07 02:30:34;;;;;;;;;;;3.30;1.00;;;;;;5042054;28;19986;-76
2024/03/07 02:39:06;;;;;;;;;;;3.10;1.00;;;;;;5046834;28;20276;-76
2024/03/07 02:44:35;;;;;;;;;;;3.00;1.00;;;;;;5044807;28;20714;-76
2024/03/07 02:50:11;;;;;;;;;;;2.90;1.00;;;;;;5033189;28;19920;-75
2024/03/07 02:52:47;;;;;;;;;;;2.90;1.00;;;;;;5033634;28;19910;-74
2024/03/07 02:55:18;;;;;;;;;;;2.90;1.00;;;;;;5039941;28;19909;-75
2024/03/07 02:57:53;;;;;;;;;;;2.80;1.00;;;;;;5043663;28;20269;-75
2024/03/07 03:00:26;;;;;;;;;;;2.80;1.00;;;;;;5045021;28;19971;-75
2024/03/07 03:02:52;;;;;;;;;;;2.80;1.00;;;;;;5037382;28;19917;-75
2024/03/07 03:08:47;;;;;;;;;;;2.70;1.00;;;;;;5045198;28;19923;-75
2024/03/07 03:11:23;;;;;;;;;;;2.70;1.00;;;;;;5036784;28;19924;-75
2024/03/07 03:13:53;;;;;;;;;;;2.70;1.00;;;;;;5043140;28;19955;-75
2024/03/07 03:16:35;;;;;;;;;;;2.70;1.00;;;;;;5055755;28;20007;-74
2024/03/07 03:19:11;;;;;;;;;;;2.60;1.00;;;;;;5026709;28;20021;-75
2024/03/07 03:21:37;;;;;;;;;;;2.60;1.00;;;;;;5027388;28;20272;-75
2024/03/07 03:24:07;;;;;;;;;;;2.60;1.00;;;;;;5045870;28;19909;-75
2024/03/07 03:26:32;;;;;;;;;;;2.60;1.00;;;;;;5054411;28;20250;-75
2024/03/07 03:28:59;;;;;;;;;;;2.50;1.00;;;;;;5054112;28;19908;-75
2024/03/07 03:31:25;;;;;;;;;;;2.50;1.00;;;;;;5042918;28;19917;-74
2024/03/07 03:36:53;;;;;;;;;;;2.50;1.00;;;;;;5045760;28;19951;-76
2024/03/07 03:39:53;;;;;;;;;;;2.40;1.00;;;;;;5045891;28;20376;-76
2024/03/07 03:42:41;;;;;;;;;;;2.40;1.00;;;;;;5044713;28;19913;-76
2024/03/07 03:45:07;;;;;;;;;;;2.40;1.00;;;;;;5035820;28;19917;-76
2024/03/07 03:57:05;;;;;;;;;;;2.30;1.00;;;;;;5045183;28;19955;-77
2024/03/07 04:02:53;;;;;;;;;;;2.30;1.00;;;;;;5032013;28;19923;-76
2024/03/07 04:05:23;;;;;;;;;;;2.30;1.00;;;;;;5031208;28;19917;-74
2024/03/07 04:07:48;;;;;;;;;;;2.20;1.00;;;;;;5055014;28;19920;-75
2024/03/07 04:10:15;;;;;;;;;;;2.20;1.00;;;;;;5055561;28;19917;-75
2024/03/07 04:12:41;;;;;;;;;;;2.10;1.00;;;;;;5051410;28;19923;-75
2024/03/07 04:15:26;;;;;;;;;;;2.10;1.00;;;;;;5040936;28;19971;-75
2024/03/07 04:17:53;;;;;;;;;;;2.10;1.00;;;;;;5035287;28;20357;-75
2024/03/07 04:20:24;;;;;;;;;;;2.00;1.00;;;;;;5036322;28;19956;-75
2024/03/07 04:23:05;;;;;;;;;;;2.00;1.00;;;;;;5046513;28;19913;-75
2024/03/07 04:25:41;;;;;;;;;;;2.00;1.00;;;;;;5045353;28;20438;-75
2024/03/07 04:34:12;;;;;;;;;;;1.90;1.00;;;;;;5036444;28;20003;-79
2024/03/07 04:46:11;;;;;;;;;;;1.80;1.00;;;;;;5036162;28;19960;-82
2024/03/07 04:48:42;;;;;;;;;;;1.80;1.00;;;;;;5056048;28;19958;-81
2024/03/07 04:57:14;;;;;;;;;;;1.80;1.00;;;;;;5046443;28;19919;-76
2024/03/07 04:59:39;;;;;;;;;;;1.70;1.00;;;;;;5045512;28;20275;-76
2024/03/07 05:08:41;;;;;;;;;;;1.70;1.00;;;;;;5033203;28;19924;-78
2024/03/07 05:11:11;;;;;;;;;;;1.60;1.00;;;;;;5054100;28;19967;-78
2024/03/07 05:16:39;;;;;;;;;;;1.70;1.00;;;;;;5042792;28;19935;-74
2024/03/07 05:28:13;;;;;;;;;;;1.60;1.00;;;;;;5047450;28;19963;-80
2024/03/07 05:39:49;;;;;;;;;;;1.40;1.00;;;;;;5040590;28;19966;-80
2024/03/07 05:42:14;;;;;;;;;;;1.40;1.00;;;;;;5054249;28;19909;-79
2024/03/07 05:44:47;;;;;;;;;;;1.40;1.00;;;;;;5049373;28;20387;-79
2024/03/07 05:47:23;;;;;;;;;;;1.40;1.00;;;;;;5036665;28;19917;-79
2024/03/07 05:49:53;;;;;;;;;;;1.30;1.00;;;;;;5031452;28;19913;-81
2024/03/07 05:52:18;;;;;;;;;;;1.30;1.00;;;;;;5032925;28;19921;-80
2024/03/07 05:54:47;;;;;;;;;;;1.30;1.00;;;;;;5044498;28;19958;-80
2024/03/07 06:00:16;;;;;;;;;;;1.20;1.00;;;;;;5042688;28;19923;-82
2024/03/07 06:03:12;;;;;;;;;;;1.20;1.00;;;;;;5025324;28;20288;-81
2024/03/07 06:05:53;;;;;;;;;;;1.10;1.00;;;;;;5014334;28;20361;-81
2024/03/07 06:11:22;;;;;;;;;;;1.10;1.00;;;;;;5033973;28;19933;-80
2024/03/07 06:14:05;;;;;;;;;;;1.10;1.00;;;;;;5015938;28;19910;-81
2024/03/07 06:25:47;;;;;;;;;;;1.20;1.00;;;;;;5033578;28;19960;-76
2024/03/07 06:31:17;;;;;;;;;;;1.30;4.00;;;;;;5048951;28;19944;-77
2024/03/07 06:36:46;;;;;;;;;;;1.60;10.10;;;;;;5027464;28;19916;-74
2024/03/07 06:39:21;;;;;;;;;;;1.80;13.20;;;;;;5050352;28;19913;-75
2024/03/07 06:41:47;;;;;;;;;;;1.90;13.60;;;;;;5047315;28;19909;-75
2024/03/07 06:44:12;;;;;;;;;;;2.10;14.30;;;;;;5040203;28;19913;-75
2024/03/07 06:46:41;;;;;;;;;;;2.30;13.20;;;;;;5043132;28;19913;-75
2024/03/07 06:49:17;;;;;;;;;;;2.30;8.90;;;;;;5041492;28;19913;-75
2024/03/07 06:51:43;;;;;;;;;;;2.40;10.20;;;;;;5027690;28;20415;-75
2024/03/07 06:54:29;;;;;;;;;;;2.40;3.30;;;;;;5023748;28;19909;-75
2024/03/07 06:57:06;;;;;;;;;;;2.40;5.70;;;;;;5043048;28;19913;-74
2024/03/07 06:59:55;;;;;;;;;;;2.50;2.30;;;;;;5032992;28;19909;-75
2024/03/07 07:02:20;;;;;;;;;;;2.60;1.30;;;;;;5041792;28;19923;-74
2024/03/07 07:04:59;;;;;;;;;;;2.90;1.00;;;;;;5048565;28;20012;-75
2024/03/07 07:13:31;;;;;;;;;;;3.30;1.10;;;;;;5038806;28;19917;-77
2024/03/07 07:16:08;;;;;;;;;;;3.70;1.00;;;;;;5047545;28;19909;-77
2024/03/07 07:19:11;;;;;;;;;;;3.70;1.00;;;;;;5045337;28;19955;-77
2024/03/07 07:21:37;;;;;;;;;;;3.90;1.00;;;;;;5038326;28;19912;-75
2024/03/07 07:24:17;;;;;;;;;;;4.00;1.00;;;;;;5048328;28;19909;-74
2024/03/07 07:26:53;;;;;;;;;;;4.20;1.00;;;;;;5056284;28;19909;-75
2024/03/07 07:29:29;;;;;;;;;;;4.30;1.00;;;;;;5051094;28;19920;-75
2024/03/07 07:32:14;;;;;;;;;;;4.40;1.00;;;;;;5035981;28;19917;-74
2024/03/07 07:34:49;;;;;;;;;;;4.50;1.00;;;;;;5038363;28;19928;-75
2024/03/07 07:43:21;;;;;;;;;;;4.80;1.00;;;;;;5031046;28;19919;-76
2024/03/07 07:45:59;;;;;;;;;;;4.90;1.00;;;;;;5051581;28;20334;-76
2024/03/07 07:51:35;;;;;;;;;;;5.10;1.00;;;;;;5039211;28;20441;-75
2024/03/07 07:54:02;;;;;;;;;;;5.10;1.00;;;;;;5038283;28;19952;-75
2024/03/07 07:56:35;;;;;;;;;;;5.20;1.00;;;;;;5052488;28;19959;-75
2024/03/07 07:59:05;;;;;;;;;;;5.20;1.00;;;;;;5051185;28;20263;-75
2024/03/07 08:01:35;;;;;;;;;;;5.30;1.00;;;;;;5040719;28;20204;-74
2024/03/07 08:04:00;;;;;;;;;;;5.40;1.00;;;;;;5040225;28;19916;-75
2024/03/07 08:06:27;;;;;;;;;;;5.40;1.00;;;;;;5044866;28;19913;-75
2024/03/07 08:08:53;;;;;;;;;;;5.60;1.00;;;;;;5042811;28;19917;-75
2024/03/07 08:11:19;;;;;;;;;;;5.60;1.00;;;;;;5055512;28;19924;-75
2024/03/07 08:13:54;;;;;;;;;;;5.70;1.00;;;;;;5037140;28;19960;-75
2024/03/07 08:16:20;;;;;;;;;;;5.80;1.00;;;;;;5028403;28;19908;-75
2024/03/07 08:18:45;;;;;;;;;;;5.80;1.00;;;;;;5053251;28;20425;-75
2024/03/07 08:21:41;;;;;;;;;;;5.90;1.00;;;;;;5043408;28;19921;-76
2024/03/07 08:24:41;;;;;;;;;;;6.00;1.00;;;;;;5044401;28;20283;-76
2024/03/07 08:33:23;;;;;;;;;;;6.20;1.00;;;;;;5045058;28;20378;-76
2024/03/07 08:44:58;;;;;;;;;;;6.60;1.00;;;;;;5036893;28;19963;-77
2024/03/07 08:50:27;;;;;;;;;;;6.80;1.00;;;;;;5053740;28;19924;-76
2024/03/07 08:53:11;;;;;;;;;;;6.80;1.00;;;;;;5041005;28;19949;-76
2024/03/07 08:56:11;;;;;;;;;;;6.80;1.00;;;;;;5034743;28;19952;-77
2024/03/07 09:01:39;;;;;;;;;;;7.10;1.00;;;;;;5049295;28;19916;-76
2024/03/07 09:07:41;;;;;;;;;;;7.70;1.00;;;;;;5046269;28;19959;-82
2024/03/07 09:10:41;;;;;;;;;;;7.90;1.00;;;;;;5055971;28;20019;-76
2024/03/07 09:13:41;;;;;;;;;;;7.90;1.00;;;;;;5048726;28;20352;-76
2024/03/07 09:19:13;;;;;;;;;;;8.30;1.00;;;;;;5014376;28;19956;-76
2024/03/07 09:21:40;;;;;;;;;;;8.40;1.00;;;;;;5016196;28;19909;-74
2024/03/07 09:24:17;;;;;;;;;;;8.50;1.00;;;;;;5039916;28;19917;-74
2024/03/07 09:26:43;;;;;;;;;;;8.60;1.00;;;;;;5034221;28;19909;-75
2024/03/07 09:29:18;;;;;;;;;;;8.70;1.00;;;;;;5034194;28;20241;-75
2024/03/07 09:31:53;;;;;;;;;;;8.60;1.00;;;;;;5029154;28;20428;-74
2024/03/07 09:34:20;;;;;;;;;;;8.70;1.00;;;;;;5041296;28;19940;-75
2024/03/07 09:39:49;;;;;;;;;;;9.10;1.00;;;;;;5029700;28;19916;-75
2024/03/07 09:48:41;;;;;;;;;;;9.30;1.00;;;;;;5018941;28;19955;-75
2024/03/07 09:54:35;;;;;;;;;;;9.50;1.00;;;;;;5032679;28;19920;-76
2024/03/07 09:57:07;;;;;;;;;;;9.50;1.00;;;;;;5043727;28;20364;-75
2024/03/07 09:59:38;;;;;;;;;;;9.40;1.00;;;;;;5034538;28;19995;-76
2024/03/07 10:02:05;;;;;;;;;;;9.40;1.00;;;;;;5042808;28;19944;-75
2024/03/07 10:04:48;;;;;;;;;;;9.50;1.00;;;;;;5035988;28;19924;-75
2024/03/07 10:07:18;;;;;;;;;;;9.60;1.00;;;;;;5047945;28;19914;-76
2024/03/07 10:09:44;;;;;;;;;;;9.60;1.00;;;;;;5041194;28;19924;-74
2024/03/07 10:12:12;;;;;;;;;;;9.70;1.00;;;;;;5043168;28;20284;-74
2024/03/07 10:14:38;;;;;;;;;;;9.90;1.00;;;;;;5040126;28;19917;-74
2024/03/07 10:17:05;;;;;;;;;;;9.80;1.00;;;;;;5041163;28;19932;-74
2024/03/07 10:19:35;;;;;;;;;;;9.80;1.00;;;;;;5039840;28;19916;-74
2024/03/07 10:22:01;;;;;;;;;;;10.00;1.00;;;;;;5043438;28;19914;-74
2024/03/07 10:24:27;;;;;;;;;;;10.00;1.00;;;;;;5043543;28;19913;-74
2024/03/07 10:26:55;;;;;;;;;;;10.20;1.00;;;;;;5050210;28;19978;-74
2024/03/07 10:29:22;;;;;;;;;;;10.20;1.00;;;;;;5038771;28;19921;-74
2024/03/07 10:31:49;;;;;;;;;;;10.60;1.00;;;;;;5037175;28;19917;-74
2024/03/07 10:34:17;;;;;;;;;;;10.50;1.00;;;;;;5041924;28;19924;-74
2024/03/07 10:36:54;;;;;;;;;;;10.30;1.00;;;;;;5043381;28;19995;-75
2024/03/07 10:39:30;;;;;;;;;;;10.20;1.00;;;;;;5052519;28;19916;-87
2024/03/07 10:42:24;;;;;;;;;;;10.40;1.00;;;;;;5042657;28;19913;-91
2024/03/07 10:45:10;;;;;;;;;;;10.50;1.00;;;;;;5049490;28;19909;-77
2024/03/07 10:47:42;;;;;;;;;;;10.60;1.00;;;;;;5039990;28;19948;-78
2024/03/07 10:50:20;;;;;;;;;;;10.80;1.00;;;;;;5045310;28;19963;-75
2024/03/07 10:52:57;;;;;;;;;;;10.80;1.00;;;;;;5046290;28;19959;-77
2024/03/07 10:58:38;;;;;;;;;;;10.80;1.00;;;;;;5041527;28;20276;-76
2024/03/07 11:01:23;;;;;;;;;;;10.80;1.00;;;;;;5047023;28;19936;-78
2024/03/07 11:04:24;;;;;;;;;;;10.80;1.00;;;;;;5028455;28;19917;-79
2024/03/07 11:06:53;;;;;;;;;;;10.70;1.00;;;;;;5042329;28;19913;-77
2024/03/07 11:12:30;;;;;;;;;;;10.30;1.00;;;;;;5040433;28;19923;-75
2024/03/07 11:14:56;;;;;;;;;;;10.10;1.00;;;;;;5031694;28;20256;-73
2024/03/07 11:17:24;;;;;;;;;;;9.90;1.00;;;;;;5036165;28;19913;-74
2024/03/07 11:19:53;;;;;;;;;;;10.10;1.00;;;;;;5051328;28;19910;-81
2024/03/07 11:25:22;;;;;;;;;;;11.00;1.00;;;;;;5025444;28;19960;-77
2024/03/07 11:34:19;;;;;;;;;;;11.20;1.00;;;;;;5047328;28;20391;-79
2024/03/07 11:36:55;;;;;;;;;;;11.40;1.00;;;;;;5042473;28;19919;-78
2024/03/07 11:42:53;;;;;;;;;;;11.40;1.00;;;;;;5042733;28;19920;-77
2024/03/07 11:51:28;;;;;;;;;;;11.40;1.00;;;;;;5050215;28;19967;-75
2024/03/07 12:03:05;;;;;;;;;;;12.00;1.00;;;;;;5029037;28;19967;-80
2024/03/07 12:05:58;;;;;;;;;;;12.10;1.00;;;;;;5017692;28;19917;-81
2024/03/07 12:08:24;;;;;;;;;;;12.20;1.00;;;;;;5041153;28;19924;-77
2024/03/07 12:10:53;;;;;;;;;;;12.60;1.00;;;;;;5044848;28;20405;-73
2024/03/07 12:16:24;;;;;;;;;;;12.90;1.00;;;;;;5036931;28;20399;-74
2024/03/07 12:18:50;;;;;;;;;;;12.80;1.00;;;;;;5050525;28;19909;-74
2024/03/07 12:21:27;;;;;;;;;;;12.70;1.00;;;;;;5030707;28;19920;-74
2024/03/07 12:23:53;;;;;;;;;;;12.60;1.00;;;;;;5035828;28;19913;-74
2024/03/07 12:26:24;;;;;;;;;;;12.70;1.00;;;;;;5048418;28;19948;-74
2024/03/07 12:28:54;;;;;;;;;;;12.70;1.00;;;;;;5042564;28;19908;-74
2024/03/07 12:31:23;;;;;;;;;;;12.70;1.00;;;;;;5051637;28;19917;-75
2024/03/07 12:33:51;;;;;;;;;;;12.70;1.00;;;;;;5038776;28;19944;-74
2024/03/07 12:36:21;;;;;;;;;;;12.40;1.00;;;;;;5034813;28;21584;-74
2024/03/07 12:39:09;;;;;;;;;;;12.50;1.00;;;;;;5042697;28;19909;-74
2024/03/07 12:41:35;;;;;;;;;;;12.50;1.00;;;;;;5053886;28;20327;-74
2024/03/07 12:44:05;;;;;;;;;;;12.60;1.00;;;;;;5054488;28;19959;-74
2024/03/07 12:46:42;;;;;;;;;;;12.50;1.00;;;;;;5054698;28;19908;-74
2024/03/07 12:49:26;;;;;;;;;;;12.50;1.00;;;;;;5052760;28;19909;-74
2024/03/07 12:51:56;;;;;;;;;;;12.30;1.00;;;;;;5037602;28;19921;-74
2024/03/07 12:54:29;;;;;;;;;;;12.20;1.00;;;;;;5048396;28;19920;-74
2024/03/07 12:57:05;;;;;;;;;;;12.20;1.00;;;;;;5046843;28;19916;-74
2024/03/07 13:02:34;;;;;;;;;;;12.00;1.00;;;;;;5045951;28;19966;-77
2024/03/07 13:04:59;;;;;;;;;;;11.90;1.00;;;;;;5039481;28;19917;-75
2024/03/07 13:07:30;;;;;;;;;;;11.90;1.00;;;;;;5034603;28;20249;-75
2024/03/07 13:09:56;;;;;;;;;;;11.90;1.00;;;;;;5038033;28;19917;-74
2024/03/07 13:12:43;;;;;;;;;;;12.00;1.00;;;;;;5034502;28;19913;-74
2024/03/07 13:15:10;;;;;;;;;;;12.00;1.00;;;;;;5029417;28;19918;-75
2024/03/07 13:17:41;;;;;;;;;;;12.10;1.00;;;;;;5037261;28;19916;-74
2024/03/07 13:20:14;;;;;;;;;;;12.00;1.00;;;;;;5043458;28;20396;-74
2024/03/07 13:25:44;;;;;;;;;;;12.00;1.00;;;;;;5034375;28;19920;-74
2024/03/07 13:28:16;;;;;;;;;;;11.90;1.00;;;;;;5037053;28;19960;-74
2024/03/07 13:30:54;;;;;;;;;;;12.00;1.00;;;;;;5042812;28;20246;-74
2024/03/07 13:33:29;;;;;;;;;;;12.00;1.00;;;;;;5039693;28;20327;-75
2024/03/07 13:36:07;;;;;;;;;;;12.50;1.00;;;;;;5033951;28;19913;-74
2024/03/07 13:38:36;;;;;;;;;;;12.60;1.00;;;;;;5039642;28;19948;-74
2024/03/07 13:44:29;;;;;;;;;;;12.70;1.00;;;;;;5050541;28;19951;-76
2024/03/07 13:46:55;;;;;;;;;;;12.90;1.00;;;;;;5034018;28;20415;-77
2024/03/07 13:49:42;;;;;;;;;;;12.90;1.00;;;;;;5043186;28;19948;-75
2024/03/07 13:52:31;;;;;;;;;;;12.90;1.00;;;;;;5038235;28;19917;-74
2024/03/07 13:54:59;;;;;;;;;;;12.90;1.00;;;;;;5044821;28;19916;-75
2024/03/07 13:57:37;;;;;;;;;;;12.70;1.00;;;;;;5045780;28;19913;-73
2024/03/07 14:00:14;;;;;;;;;;;12.60;1.00;;;;;;5031580;28;19920;-73
2024/03/07 14:02:59;;;;;;;;;;;12.50;1.00;;;;;;5038604;28;19924;-72
2024/03/07 14:05:58;;;;;;;;;;;12.60;1.00;;;;;;5033899;28;20008;-74
2024/03/07 14:08:37;;;;;;;;;;;12.70;1.00;;;;;;5030697;28;19917;-74
2024/03/07 14:11:35;;;;;;;;;;;13.10;1.00;;;;;;5053899;28;19912;-74
2024/03/07 14:14:17;;;;;;;;;;;13.10;1.00;;;;;;5051143;28;19915;-74
2024/03/07 14:17:03;;;;;;;;;;;13.10;1.00;;;;;;5045648;28;19931;-74
2024/03/07 14:19:44;;;;;;;;;;;13.00;1.00;;;;;;5042466;28;19916;-74
2024/03/07 14:22:21;;;;;;;;;;;12.90;1.00;;;;;;5045694;28;19916;-74
2024/03/07 14:24:53;;;;;;;;;;;12.80;1.00;;;;;;5049997;28;20000;-73
2024/03/07 14:30:43;;;;;;;;;;;12.60;1.00;;;;;;5032870;28;19924;-74
2024/03/07 14:36:46;;;;;;;;;;;12.20;1.00;;;;;;5047925;28;19919;-73
2024/03/07 14:39:22;;;;;;;;;;;11.60;1.00;;;;;;4999722;28;19940;-74
2024/03/07 14:42:17;;;;;;;;;;;11.50;1.00;;;;;;5003988;28;19950;-75
2024/03/07 14:44:46;;;;;;;;;;;11.30;1.00;;;;;;4989996;28;20005;-81
2024/03/07 14:47:14;;;;;;;;;;;11.20;1.00;;;;;;4991125;28;19910;-77
2024/03/07 14:52:50;;;;;;;;;;;11.00;1.00;;;;;;4989398;28;19925;-77
2024/03/07 14:58:54;;;;;;;;;;;10.90;1.00;;;;;;5008286;28;19995;-74
2024/03/07 15:01:19;;;;;;;;;;;10.80;1.00;;;;;;5003960;28;19918;-74
2024/03/07 15:03:45;;;;;;;;;;;10.80;1.00;;;;;;4996064;28;20006;-73
2024/03/07 15:06:14;;;;;;;;;;;10.70;1.00;;;;;;4998555;28;19938;-74
2024/03/07 15:08:40;;;;;;;;;;;10.60;1.00;;;;;;4995217;28;19969;-74
2024/03/07 15:11:20;;;;;;;;;;;10.50;1.00;;;;;;5004007;28;19914;-74
2024/03/07 15:13:46;;;;;;;;;;;10.50;1.00;;;;;;4997455;28;19997;-73
2024/03/07 15:16:11;;;;;;;;;;;10.50;1.00;;;;;;5027111;28;19917;-73
2024/03/07 15:18:44;;;;;;;;;;;10.60;1.00;;;;;;5056222;28;19999;-75
2024/03/07 15:21:41;;;;;;;;;;;10.80;1.00;;;;;;5044557;28;19920;-82
2024/03/07 15:24:07;;;;;;;;;;;11.00;1.00;;;;;;5026624;28;20007;-75
2024/03/07 15:26:33;;;;;;;;;;;11.10;1.00;;;;;;5042104;28;19955;-73
2024/03/07 15:29:00;;;;;;;;;;;11.20;1.00;;;;;;5048848;28;19988;-73
2024/03/07 15:31:35;;;;;;;;;;;11.20;1.00;;;;;;5048333;28;19940;-73
2024/03/07 15:34:03;;;;;;;;;;;11.20;1.00;;;;;;5032796;28;19910;-73
2024/03/07 15:36:30;;;;;;;;;;;11.10;1.00;;;;;;5023984;28;19957;-72
2024/03/07 15:38:58;;;;;;;;;;;11.10;1.00;;;;;;5037549;28;19909;-73
2024/03/07 15:41:29;;;;;;;;;;;11.10;1.00;;;;;;5044700;28;19912;-74
2024/03/07 15:44:07;;;;;;;;;;;11.10;1.00;;;;;;5044992;28;19963;-74
2024/03/07 15:46:37;;;;;;;;;;;11.10;1.00;;;;;;5049869;28;20047;-74
2024/03/07 15:49:05;;;;;;;;;;;11.00;1.00;;;;;;5040156;28;20384;-75
2024/03/07 15:51:42;;;;;;;;;;;11.00;1.00;;;;;;5028999;28;19926;-76
2024/03/07 16:00:23;;;;;;;;;;;10.70;1.00;;;;;;5041611;28;19920;-81
2024/03/07 16:05:54;;;;;;;;;;;10.70;1.00;;;;;;5052428;28;20383;-80
2024/03/07 16:14:29;;;;;;;;;;;10.40;1.00;;;;;;5029431;28;19948;-76
2024/03/07 16:16:59;;;;;;;;;;;10.40;1.00;;;;;;5038717;28;19949;-76
2024/03/07 16:19:25;;;;;;;;;;;10.30;1.00;;;;;;5045071;28;19910;-75
2024/03/07 16:22:17;;;;;;;;;;;10.20;1.00;;;;;;5035102;28;19964;-75
2024/03/07 16:27:46;;;;;;;;;;;10.10;1.00;;;;;;5046929;28;19967;-75
2024/03/07 16:33:16;;;;;;;;;;;10.00;1.00;;;;;;5040190;28;20338;-75
2024/03/07 16:39:11;;;;;;;;;;;9.90;1.00;;;;;;5052115;28;19920;-76
2024/03/07 16:42:14;;;;;;;;;;;9.90;1.00;;;;;;5039342;28;19963;-75
2024/03/07 16:44:53;;;;;;;;;;;9.90;1.00;;;;;;5035146;28;20004;-77
2024/03/07 16:47:49;;;;;;;;;;;9.80;1.00;;;;;;5021689;28;19913;-75
2024/03/07 16:50:47;;;;;;;;;;;9.80;1.00;;;;;;5038739;28;19970;-76
2024/03/07 16:53:33;;;;;;;;;;;9.70;1.00;;;;;;5034949;28;19996;-75
2024/03/07 16:56:29;;;;;;;;;;;9.70;1.00;;;;;;5043777;28;19909;-75
2024/03/07 17:02:29;;;;;;;;;;;9.70;1.00;;;;;;5039318;28;20332;-76
2024/03/07 17:04:58;;;;;;;;;;;9.60;1.00;;;;;;5042934;28;19916;-76
2024/03/07 17:07:24;;;;;;;;;;;9.60;1.00;;;;;;5045421;28;19916;-76
2024/03/07 17:09:50;;;;;;;;;;;9.50;1.00;;;;;;5030570;28;20277;-76
2024/03/07 17:12:36;;;;;;;;;;;9.50;1.00;;;;;;5023438;28;20380;-75
2024/03/07 17:18:19;;;;;;;;;;;9.50;1.00;;;;;;5047016;28;19974;-76
2024/03/07 17:21:06;;;;;;;;;;;9.50;1.00;;;;;;5044154;28;20007;-76
2024/03/07 17:23:35;;;;;;;;;;;9.40;1.00;;;;;;5041930;28;20389;-75
2024/03/07 17:26:06;;;;;;;;;;;9.40;1.00;;;;;;5040990;28;19952;-75
2024/03/07 17:28:36;;;;;;;;;;;9.40;1.00;;;;;;5030293;28;19916;-75
2024/03/07 17:31:06;;;;;;;;;;;9.30;1.00;;;;;;5025822;28;19920;-76
2024/03/07 17:33:31;;;;;;;;;;;9.20;1.00;;;;;;5028298;28;19936;-76
2024/03/07 17:35:57;;;;;;;;;;;9.20;1.00;;;;;;5026909;28;19999;-77
2024/03/07 17:41:26;;;;;;;;;;;9.20;1.00;;;;;;5034040;28;19959;-81
2024/03/07 17:43:51;;;;;;;;;;;9.10;1.00;;;;;;5033030;28;19913;-72
2024/03/07 17:46:19;;;;;;;;;;;9.10;1.00;;;;;;5033911;28;19920;-72
2024/03/07 17:48:54;;;;;;;;;;;9.10;1.00;;;;;;5037636;28;19909;-72
2024/03/07 17:51:24;;;;;;;;;;;9.10;1.00;;;;;;5038785;28;20253;-72
2024/03/07 17:54:04;;;;;;;;;;;9.10;1.00;;;;;;5039109;28;19914;-73
2024/03/07 17:56:48;;;;;;;;;;;9.00;1.00;;;;;;5034371;28;19913;-73
2024/03/07 17:59:18;;;;;;;;;;;9.00;1.00;;;;;;5033866;28;20324;-73
2024/03/07 18:02:18;;;;;;;;;;;9.00;1.00;;;;;;5030675;28;19910;-72
2024/03/07 18:04:49;;;;;;;;;;;9.00;1.00;;;;;;5030222;28;19979;-72
2024/03/07 18:07:21;;;;;;;;;;;9.00;1.00;;;;;;5033658;28;19913;-72
2024/03/07 18:09:47;;;;;;;;;;;9.00;1.00;;;;;;5036163;28;19925;-71
2024/03/07 18:12:16;;;;;;;;;;;9.00;1.00;;;;;;5040797;28;20451;-71
2024/03/07 18:14:51;;;;;;;;;;;9.00;1.00;;;;;;5033546;28;19916;-73
2024/03/07 18:17:22;;;;;;;;;;;9.00;1.00;;;;;;5033423;28;19923;-73
2024/03/07 18:19:47;;;;;;;;;;;9.00;1.00;;;;;;5051747;28;19909;-72
2024/03/07 18:22:18;;;;;;;;;;;9.00;1.00;;;;;;5042107;28;19916;-72
2024/03/07 18:24:48;;;;;;;;;;;9.00;1.00;;;;;;5048387;28;19920;-72
2024/03/07 18:30:20;;;;;;;;;;;8.90;1.00;;;;;;5047956;28;19916;-76
2024/03/07 18:32:48;;;;;;;;;;;8.90;1.00;;;;;;5053125;28;19999;-74
2024/03/07 18:35:24;;;;;;;;;;;8.90;1.00;;;;;;5037569;28;19913;-74
2024/03/07 18:38:07;;;;;;;;;;;8.90;1.00;;;;;;5037396;28;19909;-75
2024/03/07 18:41:06;;;;;;;;;;;8.90;1.00;;;;;;5035099;28;19920;-75
2024/03/07 18:44:05;;;;;;;;;;;8.90;1.00;;;;;;5028366;28;19913;-77
2024/03/07 18:47:05;;;;;;;;;;;8.80;1.00;;;;;;5026214;28;19914;-75
2024/03/07 18:50:08;;;;;;;;;;;8.80;1.00;;;;;;5047070;28;19919;-75
2024/03/07 18:53:06;;;;;;;;;;;8.80;1.00;;;;;;5032508;28;19956;-75
2024/03/07 18:55:31;;;;;;;;;;;8.80;1.00;;;;;;5017619;28;19909;-75
2024/03/07 18:58:02;;;;;;;;;;;8.80;1.00;;;;;;5039676;28;20015;-73
2024/03/07 19:00:28;;;;;;;;;;;8.80;1.00;;;;;;5034456;28;20323;-73
2024/03/07 19:03:00;;;;;;;;;;;8.80;1.00;;;;;;5028632;28;19913;-74
2024/03/07 19:05:26;;;;;;;;;;;8.80;1.00;;;;;;5028561;28;19920;-73
2024/03/07 19:07:55;;;;;;;;;;;8.80;1.00;;;;;;5036421;28;20364;-78
2024/03/07 19:13:24;;;;;;;;;;;8.80;1.00;;;;;;5054547;28;19958;-76
2024/03/07 19:15:56;;;;;;;;;;;8.80;1.00;;;;;;5045150;28;19996;-75
2024/03/07 19:18:22;;;;;;;;;;;8.80;1.00;;;;;;5031877;28;20365;-74
2024/03/07 19:20:49;;;;;;;;;;;8.80;1.00;;;;;;5038119;28;19953;-74
2024/03/07 19:23:16;;;;;;;;;;;8.70;1.00;;;;;;5044052;28;19917;-74
2024/03/07 19:25:43;;;;;;;;;;;8.80;1.00;;;;;;5044412;28;19935;-74
2024/03/07 19:28:15;;;;;;;;;;;8.80;1.00;;;;;;5044921;28;19987;-73
2024/03/07 19:30:42;;;;;;;;;;;8.80;1.00;;;;;;5056216;28;19963;-73
2024/03/07 19:33:14;;;;;;;;;;;8.70;1.00;;;;;;5048364;28;20257;-72
2024/03/07 19:35:58;;;;;;;;;;;8.70;1.00;;;;;;5049789;28;19913;-73
2024/03/07 19:38:25;;;;;;;;;;;8.70;1.00;;;;;;5034329;28;20391;-73
2024/03/07 19:40:54;;;;;;;;;;;8.70;1.00;;;;;;5044189;28;19970;-74
2024/03/07 19:43:24;;;;;;;;;;;8.70;1.00;;;;;;5051845;28;20016;-73
2024/03/07 19:45:55;;;;;;;;;;;8.70;1.00;;;;;;5047013;28;19921;-74
2024/03/07 19:48:30;;;;;;;;;;;8.70;1.00;;;;;;5049343;28;19959;-74
2024/03/07 19:50:57;;;;;;;;;;;8.60;1.00;;;;;;5044186;28;19917;-73
2024/03/07 19:53:23;;;;;;;;;;;8.60;1.00;;;;;;5040855;28;19916;-74
2024/03/07 19:55:55;;;;;;;;;;;8.60;1.00;;;;;;5036157;28;19909;-73
2024/03/07 20:01:23;;;;;;;;;;;8.50;1.00;;;;;;5042468;28;19919;-73
2024/03/07 20:04:00;;;;;;;;;;;8.50;1.00;;;;;;5055800;28;20011;-73
2024/03/07 20:06:34;;;;;;;;;;;8.40;1.00;;;;;;5055307;28;20007;-74
2024/03/07 20:09:06;;;;;;;;;;;8.30;1.00;;;;;;5045725;28;19927;-73
2024/03/07 20:11:36;;;;;;;;;;;8.30;1.00;;;;;;5048843;28;19920;-73